Beşiktaş, Turkey

3:15 PM EEST on September 30, 2016 (GMT +0300)
| | Change Station

Elev -9999 ft 0.00 °N, 0.00 °E | Updated

Clear
Clear
71 °F
Feels Like 71 °F
N
10
Wind Variable Wind from NE
Gusts mph

Today
High -- | Low -- °F
--% Chance of Precip.
Yesterday
High -- | Low -- °F
Precip. -- in
Pressure 30.15 in
Visibility 6.2 miles
Clouds Few 3300 ft
Dew Point 61 °F
Humidity 72%
Rainfall --
Snow Depth Not available.
6:59 AM 6:47 PM
Waning Crescent, 0% visible
METAR LTBA 301150Z 17006KT 130V230 9999 FEW033 25/12 Q1021 NOSIG RMK RWY17L 15006KT 080V220 RWY05 16005KT 130V190 RWY23 17004KT
Pressure 30.15 in
Visibility 6.2 miles
Clouds Few 3300 ft
Dew Point 61 °F
Humidity 72%
Rainfall --
Snow Depth Not available.
6:59 AM 6:47 PM
Waning Crescent, 0% visible
METAR LTBA 301150Z 17006KT 130V230 9999 FEW033 25/12 Q1021 NOSIG RMK RWY17L 15006KT 080V220 RWY05 16005KT 130V190 RWY23 17004KT

10-Day Weather Forecast

×

Almanac

Astronomy

Sep. 30, 2016 Rise Set
Actual Time
Civil Twilight
Nautical Twilight
Astronomical Twilight
Moon
Length of Visible Light
Length of Day
Tomorrow will be .
, % of the Moon is Illuminated

Today's Extremes

Country Highs Country Lows

Community

WunderPhotos

Upload Photos

1,942,708 photos uploaded!

WunderBlog® & News

Nearby

Air Quality

  Air Quality AQ Index Pollutant
Not available.

Snow Depth

Station Depth Elevation

Earthquake Activity

City Distance Mag. Time & Date
Minimum magnitude displayed is 2.5.

Coastal Water Temperatures

Place Temperature

Stations

Nearby Weather Stations

Station Location Temp. Windchill Dew Point Humidity Wind Precip. Elev Updated Type